sensor_id;sensor_type;location;lat;lon;timestamp;P1;durP1;ratioP1;P2;durP2;ratioP2
42866;SDS011;39461;40.948;73.006;2023-03-29T00:02:16;11.52;;;4.47;;
42866;SDS011;39461;40.948;73.006;2023-03-29T00:04:50;15.07;;;4.82;;
42866;SDS011;39461;40.948;73.006;2023-03-29T00:07:18;20.25;;;5.40;;
42866;SDS011;39461;40.948;73.006;2023-03-29T00:09:52;12.48;;;5.10;;
42866;SDS011;39461;40.948;73.006;2023-03-29T00:12:25;15.10;;;4.93;;
42866;SDS011;39461;40.948;73.006;2023-03-29T00:15:00;12.25;;;5.10;;
42866;SDS011;39461;40.948;73.006;2023-03-29T00:17:29;13.95;;;4.82;;
42866;SDS011;39461;40.948;73.006;2023-03-29T00:19:58;14.38;;;4.25;;
42866;SDS011;39461;40.948;73.006;2023-03-29T00:22:31;11.45;;;4.10;;
42866;SDS011;39461;40.948;73.006;2023-03-29T00:25:04;14.43;;;4.47;;
42866;SDS011;39461;40.948;73.006;2023-03-29T00:27:37;10.60;;;4.53;;
42866;SDS011;39461;40.948;73.006;2023-03-29T00:30:10;12.60;;;5.10;;
42866;SDS011;39461;40.948;73.006;2023-03-29T00:32:38;13.73;;;4.78;;
42866;SDS011;39461;40.948;73.006;2023-03-29T00:35:07;14.43;;;5.40;;
42866;SDS011;39461;40.948;73.006;2023-03-29T00:37:42;14.02;;;4.88;;
42866;SDS011;39461;40.948;73.006;2023-03-29T00:40:17;12.73;;;4.90;;
42866;SDS011;39461;40.948;73.006;2023-03-29T00:42:50;16.42;;;4.30;;
42866;SDS011;39461;40.948;73.006;2023-03-29T00:45:24;12.02;;;4.40;;
42866;SDS011;39461;40.948;73.006;2023-03-29T00:48:05;10.02;;;4.53;;
42866;SDS011;39461;40.948;73.006;2023-03-29T00:53:23;9.88;;;3.63;;
42866;SDS011;39461;40.948;73.006;2023-03-29T00:55:59;9.18;;;4.55;;
42866;SDS011;39461;40.948;73.006;2023-03-29T00:58:34;140.00;;;15.10;;
42866;SDS011;39461;40.948;73.006;2023-03-29T01:01:11;22.75;;;4.88;;
42866;SDS011;39461;40.948;73.006;2023-03-29T01:03:49;143.27;;;11.75;;
42866;SDS011;39461;40.948;73.006;2023-03-29T01:06:24;128.07;;;12.15;;
42866;SDS011;39461;40.948;73.006;2023-03-29T01:08:55;20.10;;;5.68;;
42866;SDS011;39461;40.948;73.006;2023-03-29T01:11:30;24.13;;;5.57;;
42866;SDS011;39461;40.948;73.006;2023-03-29T01:14:01;16.00;;;5.18;;
42866;SDS011;39461;40.948;73.006;2023-03-29T01:16:30;14.73;;;5.10;;
42866;SDS011;39461;40.948;73.006;2023-03-29T01:18:57;24.60;;;7.20;;
42866;SDS011;39461;40.948;73.006;2023-03-29T01:21:32;19.02;;;6.60;;
42866;SDS011;39461;40.948;73.006;2023-03-29T01:26:49;15.80;;;5.80;;
42866;SDS011;39461;40.948;73.006;2023-03-29T01:31:59;51.00;;;8.20;;
42866;SDS011;39461;40.948;73.006;2023-03-29T01:34:47;18.27;;;6.45;;
42866;SDS011;39461;40.948;73.006;2023-03-29T01:40:00;19.67;;;5.03;;
42866;SDS011;39461;40.948;73.006;2023-03-29T01:42:43;19.65;;;5.85;;
42866;SDS011;39461;40.948;73.006;2023-03-29T01:45:23;15.40;;;5.32;;
42866;SDS011;39461;40.948;73.006;2023-03-29T01:48:07;12.63;;;5.97;;
42866;SDS011;39461;40.948;73.006;2023-03-29T01:50:47;16.40;;;5.55;;
42866;SDS011;39461;40.948;73.006;2023-03-29T01:53:34;11.27;;;4.72;;
42866;SDS011;39461;40.948;73.006;2023-03-29T01:56:13;22.90;;;6.90;;
42866;SDS011;39461;40.948;73.006;2023-03-29T01:58:48;21.70;;;5.88;;
42866;SDS011;39461;40.948;73.006;2023-03-29T02:01:23;20.38;;;6.43;;
42866;SDS011;39461;40.948;73.006;2023-03-29T02:04:01;28.52;;;9.32;;
42866;SDS011;39461;40.948;73.006;2023-03-29T02:06:35;38.45;;;9.05;;
42866;SDS011;39461;40.948;73.006;2023-03-29T02:09:10;30.08;;;8.75;;
42866;SDS011;39461;40.948;73.006;2023-03-29T02:11:45;26.55;;;7.63;;
42866;SDS011;39461;40.948;73.006;2023-03-29T02:14:25;25.02;;;7.60;;
42866;SDS011;39461;40.948;73.006;2023-03-29T02:17:20;36.40;;;8.05;;
42866;SDS011;39461;40.948;73.006;2023-03-29T02:19:58;25.75;;;7.47;;
42866;SDS011;39461;40.948;73.006;2023-03-29T02:22:34;21.73;;;8.30;;
42866;SDS011;39461;40.948;73.006;2023-03-29T02:25:09;30.58;;;9.02;;
42866;SDS011;39461;40.948;73.006;2023-03-29T02:27:45;25.35;;;9.85;;
42866;SDS011;39461;40.948;73.006;2023-03-29T02:30:22;33.17;;;10.77;;
42866;SDS011;39461;40.948;73.006;2023-03-29T02:32:56;33.58;;;10.60;;
42866;SDS011;39461;40.948;73.006;2023-03-29T02:35:36;35.85;;;10.13;;
42866;SDS011;39461;40.948;73.006;2023-03-29T02:38:11;43.00;;;10.30;;
42866;SDS011;39461;40.948;73.006;2023-03-29T02:40:45;32.63;;;10.32;;
42866;SDS011;39461;40.948;73.006;2023-03-29T02:43:18;26.80;;;9.38;;
42866;SDS011;39461;40.948;73.006;2023-03-29T02:45:54;24.35;;;9.13;;
42866;SDS011;39461;40.948;73.006;2023-03-29T02:51:28;43.53;;;17.33;;
42866;SDS011;39461;40.948;73.006;2023-03-29T02:54:12;36.00;;;14.75;;
42866;SDS011;39461;40.948;73.006;2023-03-29T02:56:54;56.40;;;25.52;;
42866;SDS011;39461;40.948;73.006;2023-03-29T03:02:29;46.33;;;15.88;;
42866;SDS011;39461;40.948;73.006;2023-03-29T03:05:04;46.78;;;13.85;;
42866;SDS011;39461;40.948;73.006;2023-03-29T03:07:39;31.60;;;11.23;;
42866;SDS011;39461;40.948;73.006;2023-03-29T03:10:15;29.88;;;10.35;;
42866;SDS011;39461;40.948;73.006;2023-03-29T03:12:49;31.45;;;10.60;;
42866;SDS011;39461;40.948;73.006;2023-03-29T03:15:27;32.28;;;10.93;;
42866;SDS011;39461;40.948;73.006;2023-03-29T03:18:02;37.22;;;11.93;;
42866;SDS011;39461;40.948;73.006;2023-03-29T03:20:37;32.97;;;12.55;;
42866;SDS011;39461;40.948;73.006;2023-03-29T03:23:13;42.70;;;13.35;;
42866;SDS011;39461;40.948;73.006;2023-03-29T03:25:48;30.63;;;12.13;;
42866;SDS011;39461;40.948;73.006;2023-03-29T03:28:21;29.38;;;12.18;;
42866;SDS011;39461;40.948;73.006;2023-03-29T03:33:55;36.35;;;12.75;;
42866;SDS011;39461;40.948;73.006;2023-03-29T03:36:31;82.30;;;54.67;;
42866;SDS011;39461;40.948;73.006;2023-03-29T03:39:07;58.05;;;29.10;;
42866;SDS011;39461;40.948;73.006;2023-03-29T03:44:39;26.08;;;11.32;;
42866;SDS011;39461;40.948;73.006;2023-03-29T03:47:14;30.45;;;11.95;;
42866;SDS011;39461;40.948;73.006;2023-03-29T03:49:49;26.05;;;9.98;;
42866;SDS011;39461;40.948;73.006;2023-03-29T03:52:24;26.95;;;10.85;;
42866;SDS011;39461;40.948;73.006;2023-03-29T03:55:00;24.80;;;9.38;;
42866;SDS011;39461;40.948;73.006;2023-03-29T03:57:37;20.83;;;8.68;;
42866;SDS011;39461;40.948;73.006;2023-03-29T04:00:10;24.85;;;8.63;;
42866;SDS011;39461;40.948;73.006;2023-03-29T04:02:52;22.52;;;8.35;;
42866;SDS011;39461;40.948;73.006;2023-03-29T04:05:28;18.58;;;8.07;;
42866;SDS011;39461;40.948;73.006;2023-03-29T04:08:04;21.75;;;9.10;;
42866;SDS011;39461;40.948;73.006;2023-03-29T04:10:49;14.95;;;6.13;;
42866;SDS011;39461;40.948;73.006;2023-03-29T04:13:25;16.05;;;6.50;;
42866;SDS011;39461;40.948;73.006;2023-03-29T04:15:58;26.20;;;8.18;;
42866;SDS011;39461;40.948;73.006;2023-03-29T04:18:33;18.38;;;8.45;;
42866;SDS011;39461;40.948;73.006;2023-03-29T04:21:08;20.35;;;6.55;;
42866;SDS011;39461;40.948;73.006;2023-03-29T04:23:42;24.38;;;8.25;;
42866;SDS011;39461;40.948;73.006;2023-03-29T04:26:19;21.15;;;11.70;;
42866;SDS011;39461;40.948;73.006;2023-03-29T04:28:54;23.77;;;8.15;;
42866;SDS011;39461;40.948;73.006;2023-03-29T04:31:23;51.53;;;33.95;;
42866;SDS011;39461;40.948;73.006;2023-03-29T04:33:50;35.63;;;15.63;;
42866;SDS011;39461;40.948;73.006;2023-03-29T04:36:25;17.80;;;7.07;;
42866;SDS011;39461;40.948;73.006;2023-03-29T04:38:58;13.88;;;6.05;;
42866;SDS011;39461;40.948;73.006;2023-03-29T04:41:32;18.42;;;5.07;;
42866;SDS011;39461;40.948;73.006;2023-03-29T04:44:05;201.55;;;108.88;;
42866;SDS011;39461;40.948;73.006;2023-03-29T04:46:39;158.20;;;87.68;;
42866;SDS011;39461;40.948;73.006;2023-03-29T04:49:15;44.30;;;14.13;;
42866;SDS011;39461;40.948;73.006;2023-03-29T04:51:48;30.10;;;6.00;;
42866;SDS011;39461;40.948;73.006;2023-03-29T04:57:25;13.82;;;4.90;;
42866;SDS011;39461;40.948;73.006;2023-03-29T04:59:59;14.02;;;6.35;;
42866;SDS011;39461;40.948;73.006;2023-03-29T05:02:32;17.05;;;3.70;;
42866;SDS011;39461;40.948;73.006;2023-03-29T05:05:05;25.00;;;5.60;;
42866;SDS011;39461;40.948;73.006;2023-03-29T05:07:39;10.43;;;4.00;;
42866;SDS011;39461;40.948;73.006;2023-03-29T05:10:12;11.27;;;4.53;;
42866;SDS011;39461;40.948;73.006;2023-03-29T05:12:45;13.50;;;4.20;;
42866;SDS011;39461;40.948;73.006;2023-03-29T05:15:23;13.60;;;4.60;;
42866;SDS011;39461;40.948;73.006;2023-03-29T05:17:58;18.40;;;5.07;;
42866;SDS011;39461;40.948;73.006;2023-03-29T05:20:33;22.00;;;5.78;;
42866;SDS011;39461;40.948;73.006;2023-03-29T05:23:08;18.45;;;7.15;;
42866;SDS011;39461;40.948;73.006;2023-03-29T05:25:47;70.28;;;63.10;;
42866;SDS011;39461;40.948;73.006;2023-03-29T05:28:22;23.60;;;7.90;;
42866;SDS011;39461;40.948;73.006;2023-03-29T05:30:59;23.05;;;5.47;;
42866;SDS011;39461;40.948;73.006;2023-03-29T05:33:35;14.55;;;4.65;;
42866;SDS011;39461;40.948;73.006;2023-03-29T05:36:09;17.45;;;5.18;;
42866;SDS011;39461;40.948;73.006;2023-03-29T05:38:44;13.98;;;6.30;;
42866;SDS011;39461;40.948;73.006;2023-03-29T05:41:19;34.15;;;7.25;;
42866;SDS011;39461;40.948;73.006;2023-03-29T05:43:55;17.27;;;5.38;;
42866;SDS011;39461;40.948;73.006;2023-03-29T05:46:34;11.85;;;4.20;;
42866;SDS011;39461;40.948;73.006;2023-03-29T05:49:10;18.92;;;4.68;;
42866;SDS011;39461;40.948;73.006;2023-03-29T05:51:46;16.23;;;5.68;;
42866;SDS011;39461;40.948;73.006;2023-03-29T05:54:19;25.65;;;7.20;;
42866;SDS011;39461;40.948;73.006;2023-03-29T05:56:53;24.67;;;5.93;;
42866;SDS011;39461;40.948;73.006;2023-03-29T05:59:26;19.38;;;5.30;;
42866;SDS011;39461;40.948;73.006;2023-03-29T06:02:02;14.85;;;5.88;;
42866;SDS011;39461;40.948;73.006;2023-03-29T06:04:37;13.80;;;6.38;;
42866;SDS011;39461;40.948;73.006;2023-03-29T06:07:14;30.45;;;7.68;;
42866;SDS011;39461;40.948;73.006;2023-03-29T06:09:49;24.08;;;7.05;;
42866;SDS011;39461;40.948;73.006;2023-03-29T06:15:21;15.98;;;6.75;;
42866;SDS011;39461;40.948;73.006;2023-03-29T06:20:56;20.60;;;6.65;;
42866;SDS011;39461;40.948;73.006;2023-03-29T06:23:33;29.23;;;9.48;;
42866;SDS011;39461;40.948;73.006;2023-03-29T06:26:19;15.25;;;7.45;;
42866;SDS011;39461;40.948;73.006;2023-03-29T06:28:52;16.58;;;6.53;;
42866;SDS011;39461;40.948;73.006;2023-03-29T06:31:21;14.32;;;7.03;;
42866;SDS011;39461;40.948;73.006;2023-03-29T06:33:51;26.13;;;7.53;;
42866;SDS011;39461;40.948;73.006;2023-03-29T06:36:26;23.35;;;7.68;;
42866;SDS011;39461;40.948;73.006;2023-03-29T06:38:59;22.67;;;8.00;;
42866;SDS011;39461;40.948;73.006;2023-03-29T06:41:36;22.13;;;10.52;;
42866;SDS011;39461;40.948;73.006;2023-03-29T06:44:09;23.27;;;8.20;;
42866;SDS011;39461;40.948;73.006;2023-03-29T06:46:42;21.60;;;8.70;;
42866;SDS011;39461;40.948;73.006;2023-03-29T06:49:17;23.83;;;9.38;;
42866;SDS011;39461;40.948;73.006;2023-03-29T06:51:52;19.38;;;8.23;;
42866;SDS011;39461;40.948;73.006;2023-03-29T06:54:27;28.48;;;9.07;;
42866;SDS011;39461;40.948;73.006;2023-03-29T06:57:06;21.63;;;8.88;;
42866;SDS011;39461;40.948;73.006;2023-03-29T06:59:43;30.30;;;9.20;;
42866;SDS011;39461;40.948;73.006;2023-03-29T07:02:20;20.90;;;9.23;;
42866;SDS011;39461;40.948;73.006;2023-03-29T07:04:53;25.15;;;10.05;;
42866;SDS011;39461;40.948;73.006;2023-03-29T07:07:26;25.02;;;10.38;;
42866;SDS011;39461;40.948;73.006;2023-03-29T07:10:14;29.65;;;11.00;;
42866;SDS011;39461;40.948;73.006;2023-03-29T07:15:48;23.80;;;10.93;;
42866;SDS011;39461;40.948;73.006;2023-03-29T07:18:23;24.08;;;11.18;;
42866;SDS011;39461;40.948;73.006;2023-03-29T07:20:58;30.60;;;12.98;;
42866;SDS011;39461;40.948;73.006;2023-03-29T07:26:31;28.05;;;11.95;;
42866;SDS011;39461;40.948;73.006;2023-03-29T07:29:04;28.85;;;13.00;;
42866;SDS011;39461;40.948;73.006;2023-03-29T07:31:40;27.10;;;11.55;;
42866;SDS011;39461;40.948;73.006;2023-03-29T07:34:16;31.33;;;15.15;;
42866;SDS011;39461;40.948;73.006;2023-03-29T07:36:51;27.45;;;14.52;;
42866;SDS011;39461;40.948;73.006;2023-03-29T07:39:25;25.17;;;12.82;;
42866;SDS011;39461;40.948;73.006;2023-03-29T07:41:58;34.35;;;18.30;;
42866;SDS011;39461;40.948;73.006;2023-03-29T07:44:33;53.75;;;13.80;;
42866;SDS011;39461;40.948;73.006;2023-03-29T07:47:08;25.45;;;11.13;;
42866;SDS011;39461;40.948;73.006;2023-03-29T07:49:41;54.53;;;42.42;;
42866;SDS011;39461;40.948;73.006;2023-03-29T07:52:16;36.38;;;13.02;;
42866;SDS011;39461;40.948;73.006;2023-03-29T07:54:49;24.73;;;11.55;;
42866;SDS011;39461;40.948;73.006;2023-03-29T07:57:23;32.17;;;13.25;;
42866;SDS011;39461;40.948;73.006;2023-03-29T07:59:58;28.42;;;12.93;;
42866;SDS011;39461;40.948;73.006;2023-03-29T08:02:31;23.38;;;12.48;;
42866;SDS011;39461;40.948;73.006;2023-03-29T08:05:05;33.53;;;12.77;;
42866;SDS011;39461;40.948;73.006;2023-03-29T08:07:39;26.42;;;12.23;;
42866;SDS011;39461;40.948;73.006;2023-03-29T08:10:13;22.58;;;12.18;;
42866;SDS011;39461;40.948;73.006;2023-03-29T08:12:48;23.42;;;12.32;;
42866;SDS011;39461;40.948;73.006;2023-03-29T08:15:24;27.00;;;12.60;;
42866;SDS011;39461;40.948;73.006;2023-03-29T08:18:00;23.98;;;12.65;;
42866;SDS011;39461;40.948;73.006;2023-03-29T08:20:35;28.23;;;12.73;;
42866;SDS011;39461;40.948;73.006;2023-03-29T08:23:08;28.65;;;12.50;;
42866;SDS011;39461;40.948;73.006;2023-03-29T08:28:41;22.95;;;12.23;;
42866;SDS011;39461;40.948;73.006;2023-03-29T08:31:11;25.63;;;11.70;;
42866;SDS011;39461;40.948;73.006;2023-03-29T08:33:40;35.38;;;13.20;;
42866;SDS011;39461;40.948;73.006;2023-03-29T08:36:16;27.40;;;13.23;;
42866;SDS011;39461;40.948;73.006;2023-03-29T08:38:52;26.23;;;12.10;;
42866;SDS011;39461;40.948;73.006;2023-03-29T08:41:42;25.02;;;13.07;;
42866;SDS011;39461;40.948;73.006;2023-03-29T08:49:53;22.27;;;10.43;;
42866;SDS011;39461;40.948;73.006;2023-03-29T08:53:03;27.55;;;22.33;;
42866;SDS011;39461;40.948;73.006;2023-03-29T08:55:37;18.00;;;10.57;;
42866;SDS011;39461;40.948;73.006;2023-03-29T08:58:16;20.33;;;9.98;;
42866;SDS011;39461;40.948;73.006;2023-03-29T09:00:53;23.75;;;11.10;;
42866;SDS011;39461;40.948;73.006;2023-03-29T09:03:28;21.48;;;11.88;;
42866;SDS011;39461;40.948;73.006;2023-03-29T09:06:04;25.15;;;10.60;;
42866;SDS011;39461;40.948;73.006;2023-03-29T09:17:04;20.98;;;7.65;;
42866;SDS011;39461;40.948;73.006;2023-03-29T09:19:44;19.35;;;7.68;;
42866;SDS011;39461;40.948;73.006;2023-03-29T09:22:22;15.90;;;7.32;;
42866;SDS011;39461;40.948;73.006;2023-03-29T09:27:57;19.13;;;8.80;;
42866;SDS011;39461;40.948;73.006;2023-03-29T09:30:33;18.58;;;9.70;;
42866;SDS011;39461;40.948;73.006;2023-03-29T09:38:32;17.27;;;9.02;;
42866;SDS011;39461;40.948;73.006;2023-03-29T09:43:44;21.23;;;9.43;;
42866;SDS011;39461;40.948;73.006;2023-03-29T09:48:56;16.95;;;8.10;;
42866;SDS011;39461;40.948;73.006;2023-03-29T09:51:32;16.88;;;8.63;;
42866;SDS011;39461;40.948;73.006;2023-03-29T09:54:07;16.92;;;9.65;;
42866;SDS011;39461;40.948;73.006;2023-03-29T09:56:41;23.50;;;10.40;;
42866;SDS011;39461;40.948;73.006;2023-03-29T09:59:16;16.77;;;7.45;;
42866;SDS011;39461;40.948;73.006;2023-03-29T10:01:51;17.95;;;7.53;;
42866;SDS011;39461;40.948;73.006;2023-03-29T10:04:28;15.18;;;7.28;;
42866;SDS011;39461;40.948;73.006;2023-03-29T10:07:08;14.10;;;7.18;;
42866;SDS011;39461;40.948;73.006;2023-03-29T10:12:48;15.20;;;7.60;;
42866;SDS011;39461;40.948;73.006;2023-03-29T10:15:25;13.02;;;6.47;;
42866;SDS011;39461;40.948;73.006;2023-03-29T10:18:00;21.10;;;6.90;;
42866;SDS011;39461;40.948;73.006;2023-03-29T10:20:34;20.30;;;6.63;;
42866;SDS011;39461;40.948;73.006;2023-03-29T10:23:15;25.65;;;6.80;;
42866;SDS011;39461;40.948;73.006;2023-03-29T10:25:49;17.65;;;6.03;;
42866;SDS011;39461;40.948;73.006;2023-03-29T10:28:23;13.85;;;5.10;;
42866;SDS011;39461;40.948;73.006;2023-03-29T10:30:54;19.60;;;5.63;;
42866;SDS011;39461;40.948;73.006;2023-03-29T10:33:22;26.40;;;6.00;;
42866;SDS011;39461;40.948;73.006;2023-03-29T10:36:02;28.02;;;18.33;;
42866;SDS011;39461;40.948;73.006;2023-03-29T10:38:36;31.52;;;17.52;;
42866;SDS011;39461;40.948;73.006;2023-03-29T10:41:10;13.25;;;6.82;;
42866;SDS011;39461;40.948;73.006;2023-03-29T10:43:45;20.48;;;6.70;;
42866;SDS011;39461;40.948;73.006;2023-03-29T10:46:27;30.25;;;17.92;;
42866;SDS011;39461;40.948;73.006;2023-03-29T10:49:02;39.95;;;26.42;;
42866;SDS011;39461;40.948;73.006;2023-03-29T10:51:36;35.72;;;20.92;;
42866;SDS011;39461;40.948;73.006;2023-03-29T10:54:17;28.23;;;14.48;;
42866;SDS011;39461;40.948;73.006;2023-03-29T10:56:54;22.90;;;6.63;;
42866;SDS011;39461;40.948;73.006;2023-03-29T11:17:52;19.55;;;8.73;;
42866;SDS011;39461;40.948;73.006;2023-03-29T11:23:28;16.35;;;5.95;;
42866;SDS011;39461;40.948;73.006;2023-03-29T11:36:55;16.27;;;6.88;;
42866;SDS011;39461;40.948;73.006;2023-03-29T11:39:34;23.27;;;7.30;;
42866;SDS011;39461;40.948;73.006;2023-03-29T11:42:14;24.30;;;7.63;;
42866;SDS011;39461;40.948;73.006;2023-03-29T11:44:50;25.38;;;7.55;;
42866;SDS011;39461;40.948;73.006;2023-03-29T11:47:31;18.73;;;6.93;;
42866;SDS011;39461;40.948;73.006;2023-03-29T11:52:58;21.88;;;6.60;;
42866;SDS011;39461;40.948;73.006;2023-03-29T11:55:34;21.30;;;7.20;;
42866;SDS011;39461;40.948;73.006;2023-03-29T11:58:19;41.47;;;7.00;;
42866;SDS011;39461;40.948;73.006;2023-03-29T12:01:00;26.13;;;7.10;;
42866;SDS011;39461;40.948;73.006;2023-03-29T12:03:54;24.10;;;6.55;;
42866;SDS011;39461;40.948;73.006;2023-03-29T12:12:05;14.57;;;6.68;;
42866;SDS011;39461;40.948;73.006;2023-03-29T12:14:45;20.38;;;6.55;;
42866;SDS011;39461;40.948;73.006;2023-03-29T12:17:22;22.15;;;6.20;;
42866;SDS011;39461;40.948;73.006;2023-03-29T12:20:04;17.83;;;6.28;;
42866;SDS011;39461;40.948;73.006;2023-03-29T12:22:37;21.73;;;6.68;;
42866;SDS011;39461;40.948;73.006;2023-03-29T12:25:14;16.92;;;6.40;;
42866;SDS011;39461;40.948;73.006;2023-03-29T12:27:56;20.77;;;6.95;;
42866;SDS011;39461;40.948;73.006;2023-03-29T12:30:39;20.75;;;7.85;;
42866;SDS011;39461;40.948;73.006;2023-03-29T12:39:17;19.05;;;9.07;;
42866;SDS011;39461;40.948;73.006;2023-03-29T12:42:19;28.05;;;14.60;;
42866;SDS011;39461;40.948;73.006;2023-03-29T12:44:58;30.70;;;12.05;;
42866;SDS011;39461;40.948;73.006;2023-03-29T12:47:37;30.85;;;10.70;;
42866;SDS011;39461;40.948;73.006;2023-03-29T12:56:21;28.23;;;10.13;;
42866;SDS011;39461;40.948;73.006;2023-03-29T12:58:54;29.70;;;10.27;;
42866;SDS011;39461;40.948;73.006;2023-03-29T13:01:32;30.88;;;10.98;;
42866;SDS011;39461;40.948;73.006;2023-03-29T13:04:18;33.72;;;11.25;;
42866;SDS011;39461;40.948;73.006;2023-03-29T13:06:55;115.38;;;36.60;;
42866;SDS011;39461;40.948;73.006;2023-03-29T13:09:49;56.40;;;22.38;;
42866;SDS011;39461;40.948;73.006;2023-03-29T13:12:28;58.30;;;26.33;;
42866;SDS011;39461;40.948;73.006;2023-03-29T13:15:20;70.38;;;30.00;;
42866;SDS011;39461;40.948;73.006;2023-03-29T13:20:55;72.93;;;32.60;;
42866;SDS011;39461;40.948;73.006;2023-03-29T13:31:56;78.82;;;35.22;;
42866;SDS011;39461;40.948;73.006;2023-03-29T13:37:27;76.97;;;31.13;;
42866;SDS011;39461;40.948;73.006;2023-03-29T13:40:22;74.30;;;27.17;;
42866;SDS011;39461;40.948;73.006;2023-03-29T13:42:58;97.35;;;28.08;;
42866;SDS011;39461;40.948;73.006;2023-03-29T13:45:34;77.25;;;25.27;;
42866;SDS011;39461;40.948;73.006;2023-03-29T13:48:23;91.30;;;30.25;;
42866;SDS011;39461;40.948;73.006;2023-03-29T13:51:03;82.60;;;34.97;;
42866;SDS011;39461;40.948;73.006;2023-03-29T13:53:56;91.22;;;37.20;;
42866;SDS011;39461;40.948;73.006;2023-03-29T13:56:35;87.97;;;37.10;;
42866;SDS011;39461;40.948;73.006;2023-03-29T13:59:14;126.57;;;43.33;;
42866;SDS011;39461;40.948;73.006;2023-03-29T14:01:47;110.80;;;49.03;;
42866;SDS011;39461;40.948;73.006;2023-03-29T14:04:34;129.25;;;46.53;;
42866;SDS011;39461;40.948;73.006;2023-03-29T14:07:15;105.35;;;42.70;;
42866;SDS011;39461;40.948;73.006;2023-03-29T14:09:50;90.15;;;37.45;;
42866;SDS011;39461;40.948;73.006;2023-03-29T14:12:24;88.60;;;36.47;;
42866;SDS011;39461;40.948;73.006;2023-03-29T14:15:00;84.75;;;36.38;;
42866;SDS011;39461;40.948;73.006;2023-03-29T14:17:34;80.32;;;36.88;;
42866;SDS011;39461;40.948;73.006;2023-03-29T14:20:13;90.30;;;37.22;;
42866;SDS011;39461;40.948;73.006;2023-03-29T14:22:47;84.05;;;37.58;;
42866;SDS011;39461;40.948;73.006;2023-03-29T14:25:21;95.63;;;38.63;;
42866;SDS011;39461;40.948;73.006;2023-03-29T14:27:55;81.00;;;34.60;;
42866;SDS011;39461;40.948;73.006;2023-03-29T14:30:28;88.07;;;32.78;;
42866;SDS011;39461;40.948;73.006;2023-03-29T14:32:56;64.50;;;29.63;;
42866;SDS011;39461;40.948;73.006;2023-03-29T14:35:30;72.40;;;29.42;;
42866;SDS011;39461;40.948;73.006;2023-03-29T14:38:05;66.43;;;27.88;;
42866;SDS011;39461;40.948;73.006;2023-03-29T14:40:38;78.63;;;27.90;;
42866;SDS011;39461;40.948;73.006;2023-03-29T14:43:13;62.75;;;28.42;;
42866;SDS011;39461;40.948;73.006;2023-03-29T14:45:49;66.70;;;27.48;;
42866;SDS011;39461;40.948;73.006;2023-03-29T14:48:23;64.93;;;28.05;;
42866;SDS011;39461;40.948;73.006;2023-03-29T14:51:03;77.65;;;30.58;;
42866;SDS011;39461;40.948;73.006;2023-03-29T14:53:36;69.80;;;30.98;;
42866;SDS011;39461;40.948;73.006;2023-03-29T14:56:13;63.40;;;25.77;;
42866;SDS011;39461;40.948;73.006;2023-03-29T14:58:54;55.30;;;25.92;;
42866;SDS011;39461;40.948;73.006;2023-03-29T15:01:30;49.13;;;24.52;;
42866;SDS011;39461;40.948;73.006;2023-03-29T15:04:07;57.20;;;23.77;;
42866;SDS011;39461;40.948;73.006;2023-03-29T15:06:43;49.63;;;23.80;;
42866;SDS011;39461;40.948;73.006;2023-03-29T15:09:22;60.20;;;23.73;;
42866;SDS011;39461;40.948;73.006;2023-03-29T15:11:59;62.22;;;23.25;;
42866;SDS011;39461;40.948;73.006;2023-03-29T15:14:35;60.15;;;23.23;;
42866;SDS011;39461;40.948;73.006;2023-03-29T15:20:11;61.13;;;25.63;;
42866;SDS011;39461;40.948;73.006;2023-03-29T15:25:33;70.07;;;26.30;;
42866;SDS011;39461;40.948;73.006;2023-03-29T15:28:19;73.80;;;27.90;;
42866;SDS011;39461;40.948;73.006;2023-03-29T15:30:57;64.90;;;27.65;;
42866;SDS011;39461;40.948;73.006;2023-03-29T15:33:35;49.63;;;25.17;;
42866;SDS011;39461;40.948;73.006;2023-03-29T15:36:09;53.47;;;25.85;;
42866;SDS011;39461;40.948;73.006;2023-03-29T15:38:42;52.90;;;25.10;;
42866;SDS011;39461;40.948;73.006;2023-03-29T15:41:15;74.00;;;24.63;;
42866;SDS011;39461;40.948;73.006;2023-03-29T15:43:49;52.22;;;20.60;;
42866;SDS011;39461;40.948;73.006;2023-03-29T15:46:23;46.92;;;19.38;;
42866;SDS011;39461;40.948;73.006;2023-03-29T15:48:58;34.47;;;18.13;;
42866;SDS011;39461;40.948;73.006;2023-03-29T15:51:31;36.55;;;17.48;;
42866;SDS011;39461;40.948;73.006;2023-03-29T15:54:06;39.67;;;16.27;;
42866;SDS011;39461;40.948;73.006;2023-03-29T15:56:36;41.17;;;18.00;;
42866;SDS011;39461;40.948;73.006;2023-03-29T15:59:16;44.28;;;17.38;;
42866;SDS011;39461;40.948;73.006;2023-03-29T16:01:49;41.33;;;16.65;;
42866;SDS011;39461;40.948;73.006;2023-03-29T16:04:25;47.38;;;15.23;;
42866;SDS011;39461;40.948;73.006;2023-03-29T16:06:59;34.75;;;13.88;;
42866;SDS011;39461;40.948;73.006;2023-03-29T16:09:38;36.95;;;14.57;;
42866;SDS011;39461;40.948;73.006;2023-03-29T16:12:13;35.88;;;14.65;;
42866;SDS011;39461;40.948;73.006;2023-03-29T16:14:49;36.75;;;14.15;;
42866;SDS011;39461;40.948;73.006;2023-03-29T16:17:26;33.67;;;12.57;;
42866;SDS011;39461;40.948;73.006;2023-03-29T16:20:01;46.33;;;13.95;;
42866;SDS011;39461;40.948;73.006;2023-03-29T16:22:38;30.10;;;13.27;;
42866;SDS011;39461;40.948;73.006;2023-03-29T16:25:12;36.47;;;13.88;;
42866;SDS011;39461;40.948;73.006;2023-03-29T16:27:46;30.63;;;13.00;;
42866;SDS011;39461;40.948;73.006;2023-03-29T16:30:20;36.55;;;12.73;;
42866;SDS011;39461;40.948;73.006;2023-03-29T16:32:49;38.10;;;12.63;;
42866;SDS011;39461;40.948;73.006;2023-03-29T16:35:28;33.97;;;11.45;;
42866;SDS011;39461;40.948;73.006;2023-03-29T16:38:04;27.95;;;11.32;;
42866;SDS011;39461;40.948;73.006;2023-03-29T16:40:39;36.72;;;11.88;;
42866;SDS011;39461;40.948;73.006;2023-03-29T16:43:15;22.80;;;11.50;;
42866;SDS011;39461;40.948;73.006;2023-03-29T16:48:50;37.22;;;10.65;;
42866;SDS011;39461;40.948;73.006;2023-03-29T16:51:26;32.25;;;11.65;;
42866;SDS011;39461;40.948;73.006;2023-03-29T16:54:01;47.53;;;12.73;;
42866;SDS011;39461;40.948;73.006;2023-03-29T16:56:37;33.40;;;11.98;;
42866;SDS011;39461;40.948;73.006;2023-03-29T16:59:12;31.50;;;12.15;;
42866;SDS011;39461;40.948;73.006;2023-03-29T17:01:48;29.33;;;11.73;;
42866;SDS011;39461;40.948;73.006;2023-03-29T17:04:23;35.08;;;12.20;;
42866;SDS011;39461;40.948;73.006;2023-03-29T17:09:57;25.85;;;11.88;;
42866;SDS011;39461;40.948;73.006;2023-03-29T17:12:32;25.77;;;11.25;;
42866;SDS011;39461;40.948;73.006;2023-03-29T17:15:07;36.03;;;11.93;;
42866;SDS011;39461;40.948;73.006;2023-03-29T17:17:43;30.75;;;10.80;;
42866;SDS011;39461;40.948;73.006;2023-03-29T17:20:18;23.45;;;10.82;;
42866;SDS011;39461;40.948;73.006;2023-03-29T17:22:53;30.55;;;11.15;;
42866;SDS011;39461;40.948;73.006;2023-03-29T17:25:29;26.40;;;12.15;;
42866;SDS011;39461;40.948;73.006;2023-03-29T17:28:04;34.80;;;11.77;;
42866;SDS011;39461;40.948;73.006;2023-03-29T17:30:39;25.70;;;11.25;;
42866;SDS011;39461;40.948;73.006;2023-03-29T17:33:15;27.20;;;10.35;;
42866;SDS011;39461;40.948;73.006;2023-03-29T17:35:50;26.67;;;10.45;;